Gold Beach, OR

7:57 PM PDT on July 13, 2014 (GMT -0700)
RAWS FLYNN PRAIRIE OR US (MFPRO3) Elev 1542 ft | 42.40 °N, 124.38 °W | Change Station

Current weather conditions updated 44 minutes ago

Mostly Cloudy
Mostly Cloudy
57 °F
Feels Like 57 °F
N
5
Wind Variable Wind from NNW
Gusts 15.0 mph

Tomorrow is forecast to be Much Warmer than today.

Today
High -- | Low -- °F
--% Chance of Precip.
Yesterday
High -- | Low -- °F
Precip. -- in
5:52 AM 8:53 PM
Waning Gibbous, 96% visible
Pressure 30.13 in
Visibility 8.0 miles
Clouds Mostly Cloudy 500 ft
Mostly Cloudy 1300 ft
Dew Point 56 °F
Humidity 95%
Rainfall 0.01 in
Snow Depth Not available.
UV 0 out of 12
Pollen 5.10 out of 12
Air Quality Not available.
Flu Activity Sporadic
SPECI KBOK 140239Z AUTO 16006KT 8SM BKN005 BKN013 16/14 A3013 RMK AO2 CIG 002V006

More Conditions Fewer Conditions

Pressure 30.13 in
Visibility 8.0 miles
Clouds Mostly Cloudy 500 ft
Mostly Cloudy 1300 ft
Dew Point 56 °F
Humidity 95%
Rainfall 0.01 in
Snow Depth Not available.
UV 0 out of 12
Pollen 5.10 out of 12
Air Quality Not available.
Flu Activity Sporadic
SPECI KBOK 140239Z AUTO 16006KT 8SM BKN005 BKN013 16/14 A3013 RMK AO2 CIG 002V006

More Conditions Fewer Conditions

10-Day Weather Forecast

Almanac

Astronomy

Jul. 13, 2014 Rise Set
Actual Time 5:52 AM PDT 8:53 PM PDT
Civil Twilight 5:18 AM PDT 9:27 PM PDT
Nautical Twilight 4:35 AM PDT 10:10 PM PDT
Astronomical Twilight 3:44 AM PDT 11:01 PM PDT
Moon 9:42 PM PDT (7/13) 7:32 AM PDT (7/13)
Length of Visible Light 16h 09m
Length of Day
15h 01m
Tomorrow will be 1m 24s shorter.
Waning Gibbous, 96% of the Moon is Illuminated
Today
Waning Gibbous
Jul 18
Last Quarter
Jul 26
New
Aug 3
First Quarter
Aug 10
Full

Today's Extremes

State Highs State Lows

Community

WunderPhotos

Upload Photos

1,733,536 photos uploaded!

Nearby

Snow Depth

Station Depth Elevation
Fish Lake 0 in 4665 ft
Sevenmile Marsh 0 in 6200 ft
Holland Meadows 0 in 4900 ft
Diamond Lake 0 in 5315 ft
Strawberry 0 in 5760 ft

Earthquake Activity

City Distance Mag. Time & Date
No recent earthquake activity has been reported nearby.
Minimum magnitude displayed is 2.5.

Coastal Water Temperatures

Place Temperature
Port Orford, OR 54.0 °F
Crescent City, CA 57.0 °F
Charleston, OR 52.0 °F

Nearby Weather Stations

Station Location Temp. Dew Point Humidity Wind Precip. Elev Updated Type
RAWS FLYNN PRAIRIE OR, Gold Beach, OR 57 °F 56 °F 95% NNW  at  5 mph 0.00 in / hr 1542 ft 7:13 PM PDT MADIS
Weather Hawk, Gold Beach, OR 61.3 °F 58 °F 87% SE  at  3.8 mph 0.00 in / hr 128 ft 7:57 PM PDT Rapid Fire
Port Orford RV Village, Port Orford, OR 63.5 °F 58 °F 83% WNW  at  2.0 mph 0.00 in / hr 47 ft 7:57 PM PDT Rapid Fire
Carpenterville, Brookings, OR 59.9 °F 55 °F 84% West  at  1.0 mph 0.00 in / hr 1926 ft 7:55 PM PDT Normal
RAWS RED MOUND OR, Brookings, OR 66 °F 58 °F 75% NW  at  4 mph 0.00 in / hr 1752 ft 7:21 PM PDT MADIS

Show More Stations Show Fewer Stations